createdAt,value
2023-05-18T00:00:15.048Z,12.50
2023-05-18T00:02:44.546Z,12.40
2023-05-18T00:05:13.226Z,12.30
2023-05-18T00:07:41.669Z,12.30
2023-05-18T00:10:12.800Z,12.30
2023-05-18T00:12:41.720Z,12.30
2023-05-18T00:15:11.573Z,12.20
2023-05-18T00:17:43.657Z,12.20
2023-05-18T00:20:12.745Z,12.10
2023-05-18T00:22:42.706Z,12.10
2023-05-18T00:25:12.554Z,12.00
2023-05-18T00:27:40.890Z,12.10
2023-05-18T00:30:10.128Z,12.00
2023-05-18T00:32:38.728Z,12.00
2023-05-18T00:35:08.066Z,11.90
2023-05-18T00:37:36.528Z,11.90
2023-05-18T00:40:06.638Z,11.80
2023-05-18T00:42:36.983Z,11.80
2023-05-18T00:45:06.449Z,11.80
2023-05-18T00:47:34.841Z,11.70
2023-05-18T00:50:03.254Z,11.60
2023-05-18T00:52:32.862Z,11.60
2023-05-18T00:55:01.650Z,11.60
2023-05-18T00:57:29.980Z,11.60
2023-05-18T01:00:00.207Z,11.50
2023-05-18T01:02:30.593Z,11.40
2023-05-18T01:05:02.961Z,11.30
2023-05-18T01:07:33.514Z,11.30
2023-05-18T01:10:04.353Z,11.20
2023-05-18T01:12:38.676Z,11.20
2023-05-18T01:15:14.485Z,11.10
2023-05-18T01:17:57.317Z,11.10
2023-05-18T01:20:37.841Z,11.00
2023-05-18T01:23:46.862Z,11.00
2023-05-18T01:26:18.177Z,10.90
2023-05-18T01:28:48.151Z,10.90
2023-05-18T01:31:17.221Z,10.80
2023-05-18T01:33:46.013Z,10.80
2023-05-18T01:36:14.489Z,10.80
2023-05-18T01:38:44.344Z,10.70
2023-05-18T01:41:21.410Z,10.70
2023-05-18T01:43:58.942Z,10.60
2023-05-18T01:46:45.396Z,10.60
2023-05-18T01:49:20.006Z,10.60
2023-05-18T01:51:49.807Z,10.60
2023-05-18T01:54:23.600Z,10.50
2023-05-18T01:56:57.908Z,10.50
2023-05-18T01:59:29.047Z,10.50
2023-05-18T02:02:01.167Z,10.40
2023-05-18T02:04:29.919Z,10.40
2023-05-18T02:07:00.307Z,10.40
2023-05-18T02:09:28.553Z,10.30
2023-05-18T02:11:58.334Z,10.30
2023-05-18T02:14:27.383Z,10.30
2023-05-18T02:16:58.908Z,10.20
2023-05-18T02:19:27.163Z,10.20
2023-05-18T02:21:56.185Z,10.20
2023-05-18T02:24:24.803Z,10.20
2023-05-18T02:26:53.256Z,10.20
2023-05-18T02:29:23.040Z,10.10
2023-05-18T02:31:53.768Z,10.20
2023-05-18T02:34:23.106Z,10.10
2023-05-18T02:36:51.991Z,10.00
2023-05-18T02:39:20.787Z,10.00
2023-05-18T02:41:49.165Z,10.00
2023-05-18T02:44:17.663Z,10.00
2023-05-18T02:46:47.402Z,9.90
2023-05-18T02:49:18.803Z,9.90
2023-05-18T02:51:47.265Z,9.90
2023-05-18T02:54:15.759Z,9.80
2023-05-18T02:56:46.426Z,9.80
2023-05-18T02:59:25.770Z,9.70
2023-05-18T03:01:55.886Z,9.70
2023-05-18T03:04:26.320Z,9.60
2023-05-18T03:06:58.551Z,9.70
2023-05-18T03:09:27.516Z,9.60
2023-05-18T03:12:00.222Z,9.60
2023-05-18T03:14:28.864Z,9.60
2023-05-18T03:16:59.402Z,9.50
2023-05-18T03:19:28.504Z,9.50
2023-05-18T03:21:57.956Z,9.60
2023-05-18T03:24:30.509Z,9.60
2023-05-18T03:27:01.167Z,9.50
2023-05-18T03:29:31.658Z,9.50
2023-05-18T03:32:04.781Z,9.50
2023-05-18T03:34:33.235Z,9.50
2023-05-18T03:37:03.239Z,9.40
2023-05-18T03:39:33.567Z,9.40
2023-05-18T03:42:02.110Z,9.40
2023-05-18T03:44:30.871Z,9.40
2023-05-18T03:46:59.480Z,9.40
2023-05-18T03:49:29.905Z,9.40
2023-05-18T03:51:58.758Z,9.40
2023-05-18T03:54:30.144Z,9.60
2023-05-18T03:56:58.520Z,9.40
2023-05-18T03:59:26.890Z,9.30
2023-05-18T04:01:55.555Z,9.40
2023-05-18T04:04:27.504Z,9.40
2023-05-18T04:06:57.427Z,9.40
2023-05-18T04:09:25.657Z,9.50
2023-05-18T04:11:54.052Z,9.50
2023-05-18T04:14:25.021Z,9.70
2023-05-18T04:16:53.942Z,9.60
2023-05-18T04:19:23.115Z,9.60
2023-05-18T04:21:52.573Z,9.60
2023-05-18T04:24:27.017Z,9.60
2023-05-18T04:26:56.206Z,9.70
2023-05-18T04:29:24.684Z,9.70
2023-05-18T04:31:53.880Z,9.80
2023-05-18T04:34:35.902Z,9.80
2023-05-18T04:37:09.929Z,9.80
2023-05-18T04:39:42.373Z,9.80
2023-05-18T04:42:18.157Z,9.80
2023-05-18T04:44:52.259Z,9.80
2023-05-18T04:47:24.074Z,9.90
2023-05-18T04:49:56.178Z,9.90
2023-05-18T04:52:32.394Z,9.90
2023-05-18T04:55:02.589Z,10.00
2023-05-18T04:57:31.627Z,10.00
2023-05-18T05:00:00.028Z,10.00
2023-05-18T05:02:28.342Z,10.10
2023-05-18T05:04:56.683Z,10.40
2023-05-18T05:07:24.934Z,10.10
2023-05-18T05:09:53.274Z,10.20
2023-05-18T05:12:23.099Z,10.20
2023-05-18T05:14:54.064Z,10.30
2023-05-18T05:17:25.525Z,10.40
2023-05-18T05:19:54.173Z,10.40
2023-05-18T05:22:22.713Z,10.50
2023-05-18T05:24:52.113Z,10.60
2023-05-18T05:27:23.656Z,10.70
2023-05-18T05:29:52.453Z,10.70
2023-05-18T05:32:20.841Z,10.80
2023-05-18T05:34:51.897Z,10.90
2023-05-18T05:37:23.162Z,11.00
2023-05-18T05:39:52.159Z,11.10
2023-05-18T05:42:22.501Z,11.20
2023-05-18T05:44:50.836Z,11.30
2023-05-18T05:47:19.128Z,11.30
2023-05-18T05:49:47.680Z,11.40
2023-05-18T05:52:16.080Z,11.50
2023-05-18T05:54:44.659Z,11.60
2023-05-18T05:57:14.619Z,11.70
2023-05-18T05:59:44.758Z,11.80
2023-05-18T06:02:13.697Z,11.90
2023-05-18T06:04:42.098Z,12.00
2023-05-18T06:07:11.116Z,12.10
2023-05-18T06:09:39.267Z,12.20
2023-05-18T06:12:08.451Z,12.30
2023-05-18T06:14:36.744Z,12.30
2023-05-18T06:17:08.448Z,12.50
2023-05-18T06:19:36.699Z,12.50
2023-05-18T06:22:05.652Z,12.60
2023-05-18T06:24:42.659Z,12.40
2023-05-18T06:27:26.471Z,12.80
2023-05-18T06:30:19.228Z,12.90
2023-05-18T06:33:12.566Z,13.00
2023-05-18T06:35:46.836Z,13.10
2023-05-18T06:38:16.797Z,13.10
2023-05-18T06:40:45.559Z,13.10
2023-05-18T06:43:14.042Z,13.20
2023-05-18T06:45:54.087Z,13.20
2023-05-18T06:48:47.227Z,13.30
2023-05-18T06:51:16.760Z,13.40
2023-05-18T06:53:47.397Z,13.40
2023-05-18T06:56:19.496Z,13.50
2023-05-18T07:09:43.867Z,13.70
2023-05-18T07:13:04.953Z,14.10
2023-05-18T07:16:21.430Z,14.30
2023-05-18T07:19:29.778Z,14.30
2023-05-18T07:25:07.617Z,14.40
2023-05-18T07:27:39.500Z,14.20
2023-05-18T07:30:45.395Z,14.40
2023-05-18T07:33:16.247Z,14.60
2023-05-18T07:36:09.293Z,14.50
2023-05-18T07:39:06.793Z,14.60
2023-05-18T07:41:41.660Z,14.60
2023-05-18T07:44:12.547Z,14.70
2023-05-18T07:46:40.856Z,14.70
2023-05-18T07:49:09.330Z,15.00
2023-05-18T07:51:39.495Z,15.10
2023-05-18T07:54:09.298Z,15.20
2023-05-18T07:56:39.815Z,15.30
2023-05-18T07:59:09.024Z,15.40
2023-05-18T08:01:38.548Z,15.50
2023-05-18T08:04:07.438Z,15.60
2023-05-18T08:06:39.472Z,15.70
2023-05-18T08:09:08.450Z,15.70
2023-05-18T08:11:39.736Z,15.80
2023-05-18T08:14:08.293Z,15.90
2023-05-18T08:16:38.075Z,16.00
2023-05-18T08:19:06.829Z,16.20
2023-05-18T08:21:38.574Z,16.20
2023-05-18T08:24:09.021Z,16.30
2023-05-18T08:26:37.669Z,16.30
2023-05-18T08:29:11.551Z,16.40
2023-05-18T08:31:45.360Z,16.50
2023-05-18T08:34:16.024Z,16.60
2023-05-18T08:36:49.813Z,16.80
2023-05-18T08:53:57.715Z,16.80
2023-05-18T08:56:36.178Z,17.30
2023-05-18T09:02:24.884Z,17.80
2023-05-18T09:30:48.177Z,19.40
2023-05-18T09:36:43.220Z,19.40
2023-05-18T09:41:49.232Z,19.50
2023-05-18T09:45:02.739Z,19.60
2023-05-18T09:54:41.727Z,19.70
2023-05-18T10:01:50.195Z,20.00
2023-05-18T10:09:36.623Z,20.50
2023-05-18T10:12:12.927Z,20.60
2023-05-18T10:15:06.486Z,20.70
2023-05-18T10:17:47.064Z,20.70
2023-05-18T10:20:19.221Z,20.70
2023-05-18T10:48:01.353Z,21.60
2023-05-18T11:07:49.901Z,21.90
2023-05-18T11:10:18.730Z,22.00
2023-05-18T11:12:47.800Z,22.30
2023-05-18T11:15:19.079Z,22.40
2023-05-18T11:17:50.070Z,22.60
2023-05-18T11:20:19.897Z,22.90
2023-05-18T11:23:03.901Z,23.20
2023-05-18T11:25:39.078Z,23.30
2023-05-18T11:28:09.978Z,23.40
2023-05-18T11:31:00.139Z,23.60
2023-05-18T11:33:31.111Z,23.90
2023-05-18T11:36:07.737Z,24.00
2023-05-18T11:38:56.434Z,24.10
2023-05-18T11:41:31.644Z,24.10
2023-05-18T11:44:17.367Z,24.00
2023-05-18T11:46:57.995Z,24.10
2023-05-18T11:49:28.220Z,24.40
2023-05-18T11:52:10.416Z,24.30
2023-05-18T11:54:47.133Z,24.60
2023-05-18T11:57:18.487Z,24.40
2023-05-18T11:59:48.741Z,24.30
2023-05-18T12:02:23.819Z,24.40
2023-05-18T12:04:54.689Z,24.70
2023-05-18T12:07:42.379Z,24.90
2023-05-18T12:10:30.362Z,25.00
2023-05-18T12:13:05.522Z,25.00
2023-05-18T12:15:35.533Z,25.30
2023-05-18T12:18:05.047Z,25.60
2023-05-18T12:20:38.644Z,25.90
2023-05-18T12:23:07.773Z,26.10
2023-05-18T12:25:41.651Z,26.30
2023-05-18T12:28:10.707Z,26.30
2023-05-18T12:31:40.572Z,26.10
2023-05-18T12:34:12.305Z,25.90
2023-05-18T12:36:55.362Z,25.60
2023-05-18T12:39:25.105Z,25.60
2023-05-18T12:42:09.277Z,25.40
2023-05-18T12:44:45.456Z,25.10
2023-05-18T12:47:25.531Z,25.00
2023-05-18T12:49:54.940Z,25.30
2023-05-18T12:52:23.726Z,26.00
2023-05-18T12:54:59.869Z,26.80
2023-05-18T12:57:31.359Z,27.20
2023-05-18T13:00:00.305Z,27.40
2023-05-18T13:10:22.177Z,28.40
2023-05-18T13:12:54.034Z,30.30
2023-05-18T13:15:24.561Z,31.00
2023-05-18T13:18:00.575Z,31.40
2023-05-18T13:20:37.988Z,31.50
2023-05-18T13:23:08.530Z,31.20
2023-05-18T13:25:36.960Z,31.70
2023-05-18T13:28:07.832Z,32.30
2023-05-18T13:30:36.249Z,32.30
2023-05-18T13:33:05.038Z,32.50
2023-05-18T13:35:33.566Z,32.60
2023-05-18T13:38:01.937Z,32.80
2023-05-18T13:40:30.962Z,33.00
2023-05-18T13:43:02.259Z,32.90
2023-05-18T13:45:32.228Z,32.20
2023-05-18T13:48:01.171Z,31.60
2023-05-18T13:50:31.409Z,31.20
2023-05-18T13:53:02.690Z,30.80
2023-05-18T13:55:34.921Z,30.30
2023-05-18T13:58:03.440Z,30.00
2023-05-18T14:00:50.295Z,29.70
2023-05-18T14:03:20.182Z,29.40
2023-05-18T14:05:48.743Z,29.30
2023-05-18T14:08:17.432Z,29.40
2023-05-18T14:10:54.953Z,29.20
2023-05-18T14:13:23.713Z,28.60
2023-05-18T14:15:54.013Z,27.90
2023-05-18T14:18:22.279Z,27.50
2023-05-18T14:20:53.535Z,27.20
2023-05-18T14:23:21.985Z,27.30
2023-05-18T14:25:52.852Z,27.80
2023-05-18T14:28:21.281Z,28.70
2023-05-18T14:30:55.019Z,29.20
2023-05-18T14:33:27.047Z,29.30
2023-05-18T14:35:57.959Z,29.30
2023-05-18T14:38:27.062Z,29.10
2023-05-18T14:40:55.682Z,28.70
2023-05-18T14:43:23.953Z,27.90
2023-05-18T14:46:06.918Z,27.60
2023-05-18T14:48:37.795Z,27.00
2023-05-18T14:51:06.372Z,26.50
2023-05-18T14:53:34.743Z,26.30
2023-05-18T14:56:06.160Z,26.40
2023-05-18T14:58:34.757Z,27.10
2023-05-18T15:01:03.861Z,28.10
2023-05-18T15:03:32.728Z,29.00
2023-05-18T15:06:03.917Z,30.10
2023-05-18T15:08:32.459Z,30.60
2023-05-18T15:11:01.224Z,30.50
2023-05-18T16:03:47.114Z,23.60
2023-05-18T16:06:22.002Z,23.60
2023-05-18T16:08:50.916Z,23.90
2023-05-18T16:11:19.421Z,24.50
2023-05-18T16:13:50.292Z,24.80
2023-05-18T16:16:19.245Z,24.90
2023-05-18T16:18:49.919Z,24.80
2023-05-18T16:21:37.444Z,24.70
2023-05-18T16:24:14.820Z,24.60
2023-05-18T16:26:47.626Z,24.70
2023-05-18T16:29:28.443Z,24.90
2023-05-18T16:31:56.774Z,25.20
2023-05-18T16:34:41.897Z,25.40
2023-05-18T16:37:13.153Z,25.90
2023-05-18T16:39:55.610Z,26.10
2023-05-18T16:45:10.675Z,26.80
2023-05-18T16:47:39.826Z,27.40
2023-05-18T16:50:17.340Z,27.90
2023-05-18T16:52:50.051Z,28.00
2023-05-18T16:55:20.172Z,27.70
2023-05-18T16:57:58.004Z,27.10
2023-05-18T17:00:36.076Z,26.60
2023-05-18T17:03:35.518Z,26.10
2023-05-18T17:06:18.225Z,25.50
2023-05-18T17:09:08.160Z,24.80
2023-05-18T17:11:40.017Z,24.10
2023-05-18T17:14:25.491Z,23.70
2023-05-18T17:16:55.289Z,23.20
2023-05-18T17:19:26.662Z,22.80
2023-05-18T17:22:06.014Z,22.60
2023-05-18T17:24:38.059Z,22.40
2023-05-18T17:27:07.537Z,22.20
2023-05-18T17:29:44.131Z,22.00
2023-05-18T17:32:12.574Z,21.90
2023-05-18T17:34:54.951Z,21.70
2023-05-18T17:37:40.503Z,21.60
2023-05-18T17:40:16.542Z,21.40
2023-05-18T17:42:49.868Z,21.20
2023-05-18T17:45:28.379Z,21.00
2023-05-18T17:48:10.203Z,20.80
2023-05-18T17:50:39.141Z,20.60
2023-05-18T17:53:18.804Z,20.40
2023-05-18T17:55:59.758Z,20.30
2023-05-18T17:58:44.542Z,20.30
2023-05-18T18:01:25.668Z,20.20
2023-05-18T18:03:54.303Z,20.00
2023-05-18T18:06:26.733Z,20.00
2023-05-18T18:08:58.866Z,19.80
2023-05-18T18:11:27.961Z,19.60
2023-05-18T18:14:14.919Z,19.50
2023-05-18T18:16:45.409Z,19.20
2023-05-18T18:19:18.086Z,19.30
2023-05-18T18:21:46.474Z,19.30
2023-05-18T18:24:18.393Z,19.20
2023-05-18T18:27:00.478Z,19.20
2023-05-18T18:29:35.771Z,19.10
2023-05-18T18:32:15.959Z,19.10
2023-05-18T18:34:44.583Z,19.00
2023-05-18T18:37:16.296Z,19.00
2023-05-18T18:39:46.418Z,18.90
2023-05-18T18:42:24.510Z,18.90
2023-05-18T18:45:01.599Z,19.10
2023-05-18T18:47:30.720Z,18.90
2023-05-18T18:50:05.652Z,18.80
2023-05-18T18:52:39.746Z,18.70
2023-05-18T18:55:14.145Z,18.70
2023-05-18T18:57:43.017Z,18.60
2023-05-18T19:00:18.327Z,18.60
2023-05-18T19:02:49.699Z,18.50
2023-05-18T19:05:35.445Z,18.50
2023-05-18T19:08:08.843Z,18.40
2023-05-18T19:10:46.610Z,18.40
2023-05-18T19:13:15.114Z,18.30
2023-05-18T19:15:48.026Z,18.30
2023-05-18T19:18:16.648Z,18.20
2023-05-18T19:20:51.717Z,18.20
2023-05-18T19:23:20.391Z,18.10
2023-05-18T19:25:55.034Z,18.10
2023-05-18T19:28:25.747Z,18.10
2023-05-18T19:30:57.389Z,18.10
2023-05-18T19:33:26.485Z,18.00
2023-05-18T19:35:55.943Z,18.00
2023-05-18T19:38:43.657Z,18.00
2023-05-18T19:41:18.459Z,18.00
2023-05-18T19:43:50.768Z,17.80
2023-05-18T19:46:20.987Z,17.80
2023-05-18T19:48:49.843Z,17.70
2023-05-18T19:51:20.709Z,17.70
2023-05-18T19:53:58.585Z,17.50
2023-05-18T19:56:31.516Z,17.50
2023-05-18T19:59:01.629Z,17.40
2023-05-18T20:01:44.259Z,17.30
2023-05-18T20:04:13.362Z,17.20
2023-05-18T20:06:42.305Z,17.10
2023-05-18T20:09:16.586Z,17.00
2023-05-18T20:11:57.635Z,17.00
2023-05-18T20:14:45.079Z,16.70
2023-05-18T20:17:14.259Z,16.80
2023-05-18T20:19:51.304Z,16.70
2023-05-18T20:22:40.501Z,16.70
2023-05-18T20:25:14.668Z,16.60
2023-05-18T20:27:45.411Z,16.50
2023-05-18T20:30:17.163Z,16.40
2023-05-18T20:32:45.697Z,16.30
2023-05-18T20:35:16.033Z,16.30
2023-05-18T20:37:45.591Z,16.20
2023-05-18T20:40:28.468Z,16.20
2023-05-18T20:42:59.042Z,16.20
2023-05-18T20:45:29.927Z,16.10
2023-05-18T20:48:00.071Z,16.10
2023-05-18T20:50:31.811Z,16.10
2023-05-18T20:53:01.031Z,16.00
2023-05-18T20:55:32.721Z,15.90
2023-05-18T20:58:11.043Z,15.90
2023-05-18T21:00:40.449Z,15.90
2023-05-18T21:03:09.522Z,15.80
2023-05-18T21:05:39.042Z,15.80
2023-05-18T21:08:10.482Z,15.80
2023-05-18T21:10:39.735Z,15.70
2023-05-18T21:13:47.692Z,15.70
2023-05-18T21:16:30.647Z,15.70
2023-05-18T21:22:52.480Z,15.60
2023-05-18T21:25:21.150Z,15.50
2023-05-18T21:27:50.221Z,15.50
2023-05-18T21:31:05.725Z,15.50
2023-05-18T21:33:48.269Z,15.40
2023-05-18T21:36:42.246Z,15.50
2023-05-18T21:39:11.159Z,15.40
2023-05-18T21:41:40.514Z,15.40
2023-05-18T21:44:09.105Z,15.40
2023-05-18T21:46:38.442Z,15.40
2023-05-18T21:49:17.871Z,15.30
2023-05-18T21:51:46.317Z,15.30
2023-05-18T21:54:14.582Z,15.30
2023-05-18T22:43:02.104Z,14.80
2023-05-18T22:45:31.079Z,14.80
2023-05-18T22:48:00.115Z,14.80
2023-05-18T22:53:14.454Z,14.80
2023-05-18T22:55:43.334Z,14.80
2023-05-18T22:58:13.344Z,14.80
2023-05-18T23:00:41.560Z,14.90
2023-05-18T23:03:10.499Z,14.80
2023-05-18T23:05:41.362Z,14.80
2023-05-18T23:08:10.316Z,14.80
2023-05-18T23:10:38.673Z,14.80
2023-05-18T23:13:06.974Z,14.90
2023-05-18T23:15:41.555Z,14.80
2023-05-18T23:18:10.228Z,14.80
2023-05-18T23:20:38.819Z,14.80
2023-05-18T23:23:07.291Z,14.80
2023-05-18T23:25:35.808Z,14.70
2023-05-18T23:28:04.198Z,14.70
2023-05-18T23:30:33.352Z,14.70
2023-05-18T23:33:08.936Z,14.70
2023-05-18T23:35:40.523Z,14.60
2023-05-18T23:38:37.898Z,14.50
2023-05-18T23:47:05.778Z,14.50
2023-05-18T23:49:36.397Z,14.50
2023-05-18T23:52:05.908Z,14.50
2023-05-18T23:54:34.697Z,14.40
2023-05-18T23:57:03.788Z,14.30
2023-05-18T23:59:33.163Z,14.30
